sensor_id;sensor_type;location;lat;lon;timestamp;pressure;altitude;pressure_sealevel;temperature;humidity
61908;BME280;47864;52.526;19.672;2023-03-24T00:01:32;100137.09;;;11.23;100.00
61908;BME280;47864;52.526;19.672;2023-03-24T00:03:33;100136.13;;;11.24;100.00
61908;BME280;47864;52.526;19.672;2023-03-24T00:05:35;100138.94;;;11.22;100.00
61908;BME280;47864;52.526;19.672;2023-03-24T00:07:37;100132.31;;;11.26;100.00
61908;BME280;47864;52.526;19.672;2023-03-24T00:09:41;100122.16;;;11.22;100.00
61908;BME280;47864;52.526;19.672;2023-03-24T00:11:43;100132.78;;;11.30;100.00
61908;BME280;47864;52.526;19.672;2023-03-24T00:13:45;100123.16;;;11.29;100.00
61908;BME280;47864;52.526;19.672;2023-03-24T00:15:46;100113.56;;;11.20;100.00
61908;BME280;47864;52.526;19.672;2023-03-24T00:17:48;100130.63;;;11.25;100.00
61908;BME280;47864;52.526;19.672;2023-03-24T00:19:51;100112.88;;;11.01;100.00
61908;BME280;47864;52.526;19.672;2023-03-24T00:21:52;100130.13;;;11.14;100.00
61908;BME280;47864;52.526;19.672;2023-03-24T00:23:54;100101.91;;;10.88;100.00
61908;BME280;47864;52.526;19.672;2023-03-24T00:26:05;100130.63;;;11.01;100.00
61908;BME280;47864;52.526;19.672;2023-03-24T00:28:07;100128.28;;;10.90;100.00
61908;BME280;47864;52.526;19.672;2023-03-24T00:30:08;100120.84;;;10.85;100.00
61908;BME280;47864;52.526;19.672;2023-03-24T00:32:10;100125.78;;;10.80;100.00
61908;BME280;47864;52.526;19.672;2023-03-24T00:34:12;100127.78;;;10.70;100.00
61908;BME280;47864;52.526;19.672;2023-03-24T00:36:13;100114.63;;;10.44;100.00
61908;BME280;47864;52.526;19.672;2023-03-24T00:38:15;100126.47;;;10.24;100.00
61908;BME280;47864;52.526;19.672;2023-03-24T00:40:18;100148.09;;;10.37;100.00
61908;BME280;47864;52.526;19.672;2023-03-24T00:42:20;100144.59;;;10.37;100.00
61908;BME280;47864;52.526;19.672;2023-03-24T00:44:21;100147.88;;;10.30;100.00
61908;BME280;47864;52.526;19.672;2023-03-24T00:46:24;100136.28;;;10.32;100.00
61908;BME280;47864;52.526;19.672;2023-03-24T00:48:26;100139.91;;;10.30;100.00
61908;BME280;47864;52.526;19.672;2023-03-24T00:50:28;100137.09;;;10.24;100.00
61908;BME280;47864;52.526;19.672;2023-03-24T00:52:29;100139.41;;;10.19;100.00
61908;BME280;47864;52.526;19.672;2023-03-24T00:54:31;100137.16;;;10.14;100.00
61908;BME280;47864;52.526;19.672;2023-03-24T00:56:33;100136.69;;;10.11;100.00
61908;BME280;47864;52.526;19.672;2023-03-24T00:58:35;100132.00;;;10.05;100.00
61908;BME280;47864;52.526;19.672;2023-03-24T01:00:36;100132.34;;;10.02;100.00
61908;BME280;47864;52.526;19.672;2023-03-24T01:02:39;100124.84;;;9.97;100.00
61908;BME280;47864;52.526;19.672;2023-03-24T01:04:40;100120.13;;;9.83;100.00
61908;BME280;47864;52.526;19.672;2023-03-24T01:06:42;100109.88;;;9.80;100.00
61908;BME280;47864;52.526;19.672;2023-03-24T01:08:44;100119.84;;;9.86;100.00
61908;BME280;47864;52.526;19.672;2023-03-24T01:10:47;100100.88;;;9.73;100.00
61908;BME280;47864;52.526;19.672;2023-03-24T01:12:49;100120.94;;;9.75;100.00
61908;BME280;47864;52.526;19.672;2023-03-24T01:14:51;100125.00;;;9.62;100.00
61908;BME280;47864;52.526;19.672;2023-03-24T01:16:52;100108.69;;;9.48;100.00
61908;BME280;47864;52.526;19.672;2023-03-24T01:18:54;100095.72;;;9.37;100.00
61908;BME280;47864;52.526;19.672;2023-03-24T01:20:55;100110.44;;;9.40;100.00
61908;BME280;47864;52.526;19.672;2023-03-24T01:22:58;100115.53;;;9.33;100.00
61908;BME280;47864;52.526;19.672;2023-03-24T01:25:00;100112.19;;;9.31;100.00
61908;BME280;47864;52.526;19.672;2023-03-24T01:27:02;100110.28;;;8.98;100.00
61908;BME280;47864;52.526;19.672;2023-03-24T01:29:03;100107.63;;;8.98;100.00
61908;BME280;47864;52.526;19.672;2023-03-24T01:31:07;100108.78;;;8.77;100.00
61908;BME280;47864;52.526;19.672;2023-03-24T01:33:09;100102.28;;;8.90;100.00
61908;BME280;47864;52.526;19.672;2023-03-24T01:35:10;100084.00;;;8.78;100.00
61908;BME280;47864;52.526;19.672;2023-03-24T01:37:12;100082.34;;;8.77;100.00
61908;BME280;47864;52.526;19.672;2023-03-24T01:39:14;100090.50;;;8.84;100.00
61908;BME280;47864;52.526;19.672;2023-03-24T01:41:16;100088.41;;;8.88;100.00
61908;BME280;47864;52.526;19.672;2023-03-24T01:43:21;100086.41;;;8.90;100.00
61908;BME280;47864;52.526;19.672;2023-03-24T01:45:43;100086.25;;;8.91;100.00
61908;BME280;47864;52.526;19.672;2023-03-24T01:47:45;100084.16;;;8.77;100.00
61908;BME280;47864;52.526;19.672;2023-03-24T01:49:50;100080.53;;;8.60;100.00
61908;BME280;47864;52.526;19.672;2023-03-24T01:51:57;100088.63;;;8.59;100.00
61908;BME280;47864;52.526;19.672;2023-03-24T01:54:22;100084.31;;;8.58;100.00
61908;BME280;47864;52.526;19.672;2023-03-24T01:56:29;100087.13;;;8.56;100.00
61908;BME280;47864;52.526;19.672;2023-03-24T01:58:34;100089.91;;;8.55;100.00
61908;BME280;47864;52.526;19.672;2023-03-24T02:00:37;100087.25;;;8.55;100.00
61908;BME280;47864;52.526;19.672;2023-03-24T02:02:44;100070.50;;;8.46;100.00
61908;BME280;47864;52.526;19.672;2023-03-24T02:04:49;100079.78;;;8.50;100.00
61908;BME280;47864;52.526;19.672;2023-03-24T02:06:52;100063.88;;;8.15;100.00
61908;BME280;47864;52.526;19.672;2023-03-24T02:08:56;100071.47;;;8.18;100.00
61908;BME280;47864;52.526;19.672;2023-03-24T02:13:20;100070.91;;;7.96;100.00
61908;BME280;47864;52.526;19.672;2023-03-24T02:15:24;100063.78;;;8.07;100.00
61908;BME280;47864;52.526;19.672;2023-03-24T02:19:56;100079.34;;;8.27;100.00
61908;BME280;47864;52.526;19.672;2023-03-24T02:29:21;100082.13;;;8.26;100.00
61908;BME280;47864;52.526;19.672;2023-03-24T02:41:21;100088.69;;;8.49;100.00
61908;BME280;47864;52.526;19.672;2023-03-24T02:43:36;100087.56;;;8.52;100.00
61908;BME280;47864;52.526;19.672;2023-03-24T02:45:57;100090.41;;;8.58;100.00
61908;BME280;47864;52.526;19.672;2023-03-24T02:50:35;100091.72;;;8.54;100.00
61908;BME280;47864;52.526;19.672;2023-03-24T02:53:00;100092.66;;;8.35;100.00
61908;BME280;47864;52.526;19.672;2023-03-24T02:57:29;100089.19;;;8.35;100.00
61908;BME280;47864;52.526;19.672;2023-03-24T02:59:48;100087.09;;;8.38;100.00
61908;BME280;47864;52.526;19.672;2023-03-24T03:02:01;100087.69;;;8.50;100.00
61908;BME280;47864;52.526;19.672;2023-03-24T03:04:41;100083.25;;;8.51;100.00
61908;BME280;47864;52.526;19.672;2023-03-24T03:06:37;100081.84;;;8.56;100.00
61908;BME280;47864;52.526;19.672;2023-03-24T03:08:40;100083.31;;;8.59;100.00
61908;BME280;47864;52.526;19.672;2023-03-24T03:10:45;100082.88;;;8.63;100.00
61908;BME280;47864;52.526;19.672;2023-03-24T03:12:50;100080.25;;;8.63;100.00
61908;BME280;47864;52.526;19.672;2023-03-24T03:14:59;100081.59;;;8.67;100.00
61908;BME280;47864;52.526;19.672;2023-03-24T03:17:18;100074.50;;;8.68;100.00
61908;BME280;47864;52.526;19.672;2023-03-24T03:19:24;100057.34;;;8.54;100.00
61908;BME280;47864;52.526;19.672;2023-03-24T03:21:39;100053.25;;;8.60;100.00
61908;BME280;47864;52.526;19.672;2023-03-24T03:23:47;100069.88;;;8.70;100.00
61908;BME280;47864;52.526;19.672;2023-03-24T03:25:55;100074.06;;;8.72;100.00
61908;BME280;47864;52.526;19.672;2023-03-24T03:28:00;100057.72;;;8.59;100.00
61908;BME280;47864;52.526;19.672;2023-03-24T03:30:33;100069.97;;;8.60;100.00
61908;BME280;47864;52.526;19.672;2023-03-24T03:32:40;100047.28;;;8.40;100.00
61908;BME280;47864;52.526;19.672;2023-03-24T03:34:45;100066.19;;;8.45;100.00
61908;BME280;47864;52.526;19.672;2023-03-24T03:36:56;100071.19;;;8.48;100.00
61908;BME280;47864;52.526;19.672;2023-03-24T03:39:10;100050.56;;;8.24;100.00
61908;BME280;47864;52.526;19.672;2023-03-24T03:41:13;100044.56;;;8.32;100.00
61908;BME280;47864;52.526;19.672;2023-03-24T03:43:16;100059.38;;;8.43;100.00
61908;BME280;47864;52.526;19.672;2023-03-24T03:45:18;100057.63;;;8.33;100.00
61908;BME280;47864;52.526;19.672;2023-03-24T03:47:20;100040.28;;;8.31;100.00
61908;BME280;47864;52.526;19.672;2023-03-24T03:49:21;100060.97;;;8.35;100.00
61908;BME280;47864;52.526;19.672;2023-03-24T03:51:23;100065.69;;;8.32;100.00
61908;BME280;47864;52.526;19.672;2023-03-24T03:53:49;100047.34;;;8.30;100.00
61908;BME280;47864;52.526;19.672;2023-03-24T03:55:52;100042.47;;;8.08;100.00
61908;BME280;47864;52.526;19.672;2023-03-24T03:57:53;100052.69;;;8.21;100.00
61908;BME280;47864;52.526;19.672;2023-03-24T03:59:55;100056.16;;;8.21;100.00
61908;BME280;47864;52.526;19.672;2023-03-24T04:01:57;100057.91;;;8.30;100.00
61908;BME280;47864;52.526;19.672;2023-03-24T04:06:56;100055.97;;;8.32;100.00
61908;BME280;47864;52.526;19.672;2023-03-24T04:15:33;100049.06;;;8.22;100.00
61908;BME280;47864;52.526;19.672;2023-03-24T04:20:14;100035.66;;;8.33;100.00
61908;BME280;47864;52.526;19.672;2023-03-24T04:22:24;100040.78;;;8.34;100.00
61908;BME280;47864;52.526;19.672;2023-03-24T04:24:42;99997.34;;;8.19;100.00
61908;BME280;47864;52.526;19.672;2023-03-24T04:26:55;100045.81;;;8.55;100.00
61908;BME280;47864;52.526;19.672;2023-03-24T04:31:17;100024.00;;;8.26;100.00
61908;BME280;47864;52.526;19.672;2023-03-24T04:35:32;100032.50;;;8.47;100.00
61908;BME280;47864;52.526;19.672;2023-03-24T04:37:35;100035.91;;;8.39;100.00
61908;BME280;47864;52.526;19.672;2023-03-24T04:39:40;100021.19;;;8.37;100.00
61908;BME280;47864;52.526;19.672;2023-03-24T04:41:44;100016.91;;;8.26;100.00
61908;BME280;47864;52.526;19.672;2023-03-24T04:43:47;100027.38;;;8.46;100.00
61908;BME280;47864;52.526;19.672;2023-03-24T04:45:50;100022.84;;;8.38;100.00
61908;BME280;47864;52.526;19.672;2023-03-24T04:47:57;100024.88;;;8.62;100.00
61908;BME280;47864;52.526;19.672;2023-03-24T04:50:01;100012.84;;;8.67;100.00
61908;BME280;47864;52.526;19.672;2023-03-24T04:52:03;100019.03;;;8.76;100.00
61908;BME280;47864;52.526;19.672;2023-03-24T04:54:05;100022.56;;;8.85;100.00
61908;BME280;47864;52.526;19.672;2023-03-24T04:58:28;100017.00;;;9.13;100.00
61908;BME280;47864;52.526;19.672;2023-03-24T05:00:29;100015.09;;;9.32;100.00
61908;BME280;47864;52.526;19.672;2023-03-24T05:02:31;100006.31;;;9.31;100.00
61908;BME280;47864;52.526;19.672;2023-03-24T05:04:33;100010.78;;;9.31;100.00
61908;BME280;47864;52.526;19.672;2023-03-24T05:06:34;100007.44;;;9.46;100.00
61908;BME280;47864;52.526;19.672;2023-03-24T05:08:35;99992.69;;;9.44;100.00
61908;BME280;47864;52.526;19.672;2023-03-24T05:10:37;99994.03;;;9.56;100.00
61908;BME280;47864;52.526;19.672;2023-03-24T05:12:39;100001.16;;;9.55;100.00
61908;BME280;47864;52.526;19.672;2023-03-24T05:14:40;99997.25;;;9.68;100.00
61908;BME280;47864;52.526;19.672;2023-03-24T05:16:42;100000.88;;;9.67;100.00
61908;BME280;47864;52.526;19.672;2023-03-24T05:18:44;99993.09;;;9.65;100.00
61908;BME280;47864;52.526;19.672;2023-03-24T05:20:45;99993.25;;;9.64;100.00
61908;BME280;47864;52.526;19.672;2023-03-24T05:22:47;99989.47;;;9.74;100.00
61908;BME280;47864;52.526;19.672;2023-03-24T05:24:49;99972.34;;;9.44;100.00
61908;BME280;47864;52.526;19.672;2023-03-24T05:26:50;99977.78;;;9.43;100.00
61908;BME280;47864;52.526;19.672;2023-03-24T05:28:52;99990.13;;;9.68;100.00
61908;BME280;47864;52.526;19.672;2023-03-24T05:30:54;99982.91;;;9.78;100.00
61908;BME280;47864;52.526;19.672;2023-03-24T05:32:56;99994.00;;;9.90;100.00
61908;BME280;47864;52.526;19.672;2023-03-24T05:34:57;99991.66;;;9.79;100.00
61908;BME280;47864;52.526;19.672;2023-03-24T05:36:59;99987.84;;;9.81;100.00
61908;BME280;47864;52.526;19.672;2023-03-24T05:39:00;99968.63;;;9.71;100.00
61908;BME280;47864;52.526;19.672;2023-03-24T05:41:01;99968.84;;;9.86;100.00
61908;BME280;47864;52.526;19.672;2023-03-24T05:43:03;99949.59;;;9.76;100.00
61908;BME280;47864;52.526;19.672;2023-03-24T05:45:05;99985.59;;;10.03;100.00
61908;BME280;47864;52.526;19.672;2023-03-24T05:47:07;99961.06;;;9.92;100.00
61908;BME280;47864;52.526;19.672;2023-03-24T05:49:09;99958.75;;;10.06;100.00
61908;BME280;47864;52.526;19.672;2023-03-24T05:51:10;99925.91;;;9.74;100.00
61908;BME280;47864;52.526;19.672;2023-03-24T05:53:12;99966.91;;;10.12;100.00
61908;BME280;47864;52.526;19.672;2023-03-24T05:55:13;99958.94;;;10.04;100.00
61908;BME280;47864;52.526;19.672;2023-03-24T05:57:15;99974.69;;;10.14;100.00
61908;BME280;47864;52.526;19.672;2023-03-24T05:59:16;99968.72;;;9.96;100.00
61908;BME280;47864;52.526;19.672;2023-03-24T06:01:18;99950.28;;;9.78;100.00
61908;BME280;47864;52.526;19.672;2023-03-24T06:03:20;99967.13;;;9.69;100.00
61908;BME280;47864;52.526;19.672;2023-03-24T06:05:22;99966.75;;;9.64;100.00
61908;BME280;47864;52.526;19.672;2023-03-24T06:07:24;99964.50;;;9.77;100.00
61908;BME280;47864;52.526;19.672;2023-03-24T06:09:26;99957.53;;;9.68;100.00
61908;BME280;47864;52.526;19.672;2023-03-24T06:11:27;99960.84;;;9.70;100.00
61908;BME280;47864;52.526;19.672;2023-03-24T06:13:30;99955.75;;;9.84;100.00
61908;BME280;47864;52.526;19.672;2023-03-24T06:15:31;99936.19;;;9.77;100.00
61908;BME280;47864;52.526;19.672;2023-03-24T06:17:33;99938.38;;;9.98;100.00
61908;BME280;47864;52.526;19.672;2023-03-24T06:19:34;99942.88;;;10.06;100.00
61908;BME280;47864;52.526;19.672;2023-03-24T06:21:36;99955.03;;;10.24;100.00
61908;BME280;47864;52.526;19.672;2023-03-24T06:23:37;99944.41;;;10.33;100.00
61908;BME280;47864;52.526;19.672;2023-03-24T06:25:39;99949.41;;;10.44;100.00
61908;BME280;47864;52.526;19.672;2023-03-24T06:27:44;99954.56;;;10.45;100.00
61908;BME280;47864;52.526;19.672;2023-03-24T06:29:45;99950.56;;;10.49;100.00
61908;BME280;47864;52.526;19.672;2023-03-24T06:31:47;99953.38;;;10.56;100.00
61908;BME280;47864;52.526;19.672;2023-03-24T06:33:52;99949.03;;;10.71;100.00
61908;BME280;47864;52.526;19.672;2023-03-24T06:35:53;99944.25;;;10.75;100.00
61908;BME280;47864;52.526;19.672;2023-03-24T06:37:55;99947.69;;;10.99;100.00
61908;BME280;47864;52.526;19.672;2023-03-24T06:39:56;99903.94;;;10.71;100.00
61908;BME280;47864;52.526;19.672;2023-03-24T06:41:58;99948.00;;;11.04;100.00
61908;BME280;47864;52.526;19.672;2023-03-24T06:43:59;99937.22;;;11.06;100.00
61908;BME280;47864;52.526;19.672;2023-03-24T06:46:01;99949.09;;;11.26;100.00
61908;BME280;47864;52.526;19.672;2023-03-24T06:48:02;99947.63;;;11.16;100.00
61908;BME280;47864;52.526;19.672;2023-03-24T06:50:05;99954.41;;;11.26;100.00
61908;BME280;47864;52.526;19.672;2023-03-24T06:52:06;99948.75;;;11.29;100.00
61908;BME280;47864;52.526;19.672;2023-03-24T06:54:08;99941.91;;;11.43;100.00
61908;BME280;47864;52.526;19.672;2023-03-24T06:56:10;99958.16;;;11.48;100.00
61908;BME280;47864;52.526;19.672;2023-03-24T06:58:12;99954.16;;;11.52;100.00
61908;BME280;47864;52.526;19.672;2023-03-24T07:00:13;99949.50;;;11.46;100.00
61908;BME280;47864;52.526;19.672;2023-03-24T07:02:15;99942.28;;;11.63;100.00
61908;BME280;47864;52.526;19.672;2023-03-24T07:04:16;99964.50;;;11.78;100.00
61908;BME280;47864;52.526;19.672;2023-03-24T07:06:18;99955.91;;;11.76;100.00
61908;BME280;47864;52.526;19.672;2023-03-24T07:08:19;99954.50;;;11.88;100.00
61908;BME280;47864;52.526;19.672;2023-03-24T07:10:24;99954.09;;;11.99;100.00
61908;BME280;47864;52.526;19.672;2023-03-24T07:12:25;99952.66;;;11.89;100.00
61908;BME280;47864;52.526;19.672;2023-03-24T07:14:27;99942.19;;;12.18;100.00
61908;BME280;47864;52.526;19.672;2023-03-24T07:16:29;99930.28;;;12.29;100.00
61908;BME280;47864;52.526;19.672;2023-03-24T07:18:31;99940.56;;;12.54;100.00
61908;BME280;47864;52.526;19.672;2023-03-24T07:20:32;99933.56;;;12.76;100.00
61908;BME280;47864;52.526;19.672;2023-03-24T07:22:34;99936.38;;;12.75;100.00
61908;BME280;47864;52.526;19.672;2023-03-24T07:24:35;99934.91;;;12.72;100.00
61908;BME280;47864;52.526;19.672;2023-03-24T07:26:38;99927.59;;;12.89;100.00
61908;BME280;47864;52.526;19.672;2023-03-24T07:28:39;99925.00;;;13.10;100.00
61908;BME280;47864;52.526;19.672;2023-03-24T07:30:41;99913.28;;;12.90;100.00
61908;BME280;47864;52.526;19.672;2023-03-24T07:32:42;99908.88;;;12.97;100.00
61908;BME280;47864;52.526;19.672;2023-03-24T07:34:44;99906.03;;;12.99;100.00
61908;BME280;47864;52.526;19.672;2023-03-24T07:36:45;99896.97;;;13.22;100.00
61908;BME280;47864;52.526;19.672;2023-03-24T07:38:47;99903.03;;;13.16;100.00
61908;BME280;47864;52.526;19.672;2023-03-24T07:40:48;99891.91;;;13.42;100.00
61908;BME280;47864;52.526;19.672;2023-03-24T07:42:50;99889.53;;;13.32;100.00
61908;BME280;47864;52.526;19.672;2023-03-24T07:44:52;99888.75;;;13.39;100.00
61908;BME280;47864;52.526;19.672;2023-03-24T07:46:53;99885.81;;;13.48;100.00
61908;BME280;47864;52.526;19.672;2023-03-24T07:48:55;99863.31;;;13.93;100.00
61908;BME280;47864;52.526;19.672;2023-03-24T07:50:59;99884.22;;;13.90;100.00
61908;BME280;47864;52.526;19.672;2023-03-24T07:53:01;99877.72;;;14.20;100.00
61908;BME280;47864;52.526;19.672;2023-03-24T07:55:03;99871.47;;;14.34;100.00
61908;BME280;47864;52.526;19.672;2023-03-24T07:57:06;99869.22;;;14.31;100.00
61908;BME280;47864;52.526;19.672;2023-03-24T07:59:11;99857.22;;;14.42;100.00
61908;BME280;47864;52.526;19.672;2023-03-24T08:01:13;99853.00;;;14.54;100.00
61908;BME280;47864;52.526;19.672;2023-03-24T08:03:14;99849.28;;;14.49;100.00
61908;BME280;47864;52.526;19.672;2023-03-24T08:05:17;99844.34;;;14.24;100.00
61908;BME280;47864;52.526;19.672;2023-03-24T08:07:19;99819.50;;;14.24;100.00
61908;BME280;47864;52.526;19.672;2023-03-24T08:09:21;99843.00;;;14.63;100.00
61908;BME280;47864;52.526;19.672;2023-03-24T08:11:22;99829.34;;;14.51;100.00
61908;BME280;47864;52.526;19.672;2023-03-24T08:13:24;99825.59;;;14.39;100.00
61908;BME280;47864;52.526;19.672;2023-03-24T08:15:26;99833.97;;;14.64;100.00
61908;BME280;47864;52.526;19.672;2023-03-24T08:17:28;99833.31;;;14.55;100.00
61908;BME280;47864;52.526;19.672;2023-03-24T08:19:29;99833.94;;;14.57;100.00
61908;BME280;47864;52.526;19.672;2023-03-24T08:21:31;99825.63;;;14.73;100.00
61908;BME280;47864;52.526;19.672;2023-03-24T08:23:32;99819.16;;;14.61;100.00
61908;BME280;47864;52.526;19.672;2023-03-24T08:25:34;99823.47;;;14.34;100.00
61908;BME280;47864;52.526;19.672;2023-03-24T08:27:37;99822.13;;;14.45;100.00
61908;BME280;47864;52.526;19.672;2023-03-24T08:29:39;99817.84;;;14.51;100.00
61908;BME280;47864;52.526;19.672;2023-03-24T08:31:40;99811.75;;;14.57;100.00
61908;BME280;47864;52.526;19.672;2023-03-24T08:33:41;99813.13;;;14.80;100.00
61908;BME280;47864;52.526;19.672;2023-03-24T08:35:43;99815.81;;;14.80;100.00
61908;BME280;47864;52.526;19.672;2023-03-24T08:37:45;99793.47;;;14.95;100.00
61908;BME280;47864;52.526;19.672;2023-03-24T08:39:46;99813.72;;;15.23;100.00
61908;BME280;47864;52.526;19.672;2023-03-24T08:41:48;99806.03;;;15.07;100.00
61908;BME280;47864;52.526;19.672;2023-03-24T08:43:49;99818.66;;;15.20;100.00
61908;BME280;47864;52.526;19.672;2023-03-24T08:45:51;99815.78;;;15.21;100.00
61908;BME280;47864;52.526;19.672;2023-03-24T08:47:54;99806.06;;;15.75;100.00
61908;BME280;47864;52.526;19.672;2023-03-24T08:49:56;99810.63;;;16.07;100.00
61908;BME280;47864;52.526;19.672;2023-03-24T08:51:58;99804.03;;;15.77;100.00
61908;BME280;47864;52.526;19.672;2023-03-24T08:54:00;99805.69;;;16.11;100.00
61908;BME280;47864;52.526;19.672;2023-03-24T08:56:01;99789.63;;;15.91;100.00
61908;BME280;47864;52.526;19.672;2023-03-24T08:58:03;99789.53;;;15.38;100.00
61908;BME280;47864;52.526;19.672;2023-03-24T09:00:05;99797.13;;;15.35;100.00
61908;BME280;47864;52.526;19.672;2023-03-24T09:02:11;99792.63;;;15.48;100.00
61908;BME280;47864;52.526;19.672;2023-03-24T09:04:13;99797.03;;;15.69;100.00
61908;BME280;47864;52.526;19.672;2023-03-24T09:06:15;99795.28;;;15.48;100.00
61908;BME280;47864;52.526;19.672;2023-03-24T09:08:17;99785.22;;;15.37;100.00
61908;BME280;47864;52.526;19.672;2023-03-24T09:10:20;99773.03;;;15.28;100.00
61908;BME280;47864;52.526;19.672;2023-03-24T09:12:21;99753.31;;;15.22;100.00
61908;BME280;47864;52.526;19.672;2023-03-24T09:14:23;99772.22;;;15.21;100.00
61908;BME280;47864;52.526;19.672;2023-03-24T09:16:24;99780.88;;;15.30;100.00
61908;BME280;47864;52.526;19.672;2023-03-24T09:18:27;99776.34;;;15.37;100.00
61908;BME280;47864;52.526;19.672;2023-03-24T09:20:29;99774.19;;;15.67;100.00
61908;BME280;47864;52.526;19.672;2023-03-24T09:22:30;99766.16;;;15.73;100.00
61908;BME280;47864;52.526;19.672;2023-03-24T09:24:32;99772.03;;;15.29;100.00
61908;BME280;47864;52.526;19.672;2023-03-24T09:26:33;99761.66;;;15.87;100.00
61908;BME280;47864;52.526;19.672;2023-03-24T09:28:35;99760.16;;;16.44;100.00
61908;BME280;47864;52.526;19.672;2023-03-24T09:30:36;99741.56;;;16.75;100.00
61908;BME280;47864;52.526;19.672;2023-03-24T09:32:38;99753.16;;;17.07;100.00
61908;BME280;47864;52.526;19.672;2023-03-24T09:34:40;99760.47;;;16.93;100.00
61908;BME280;47864;52.526;19.672;2023-03-24T09:36:41;99753.38;;;17.05;100.00
61908;BME280;47864;52.526;19.672;2023-03-24T09:38:43;99762.16;;;17.26;100.00
61908;BME280;47864;52.526;19.672;2023-03-24T09:40:45;99732.66;;;16.81;100.00
61908;BME280;47864;52.526;19.672;2023-03-24T09:42:54;99760.78;;;17.10;100.00
61908;BME280;47864;52.526;19.672;2023-03-24T09:44:59;99755.97;;;17.57;99.75
61908;BME280;47864;52.526;19.672;2023-03-24T09:49:27;99752.47;;;17.56;98.31
61908;BME280;47864;52.526;19.672;2023-03-24T09:51:34;99753.97;;;17.52;99.85
61908;BME280;47864;52.526;19.672;2023-03-24T09:56:02;99750.31;;;17.78;93.27
61908;BME280;47864;52.526;19.672;2023-03-24T09:58:06;99740.81;;;17.75;94.53
61908;BME280;47864;52.526;19.672;2023-03-24T10:02:18;99742.00;;;17.17;98.28
61908;BME280;47864;52.526;19.672;2023-03-24T10:04:24;99751.44;;;17.26;96.62
61908;BME280;47864;52.526;19.672;2023-03-24T10:06:37;99747.16;;;17.49;96.16
61908;BME280;47864;52.526;19.672;2023-03-24T10:08:46;99748.84;;;17.06;98.59
61908;BME280;47864;52.526;19.672;2023-03-24T10:13:06;99726.50;;;16.81;98.63
61908;BME280;47864;52.526;19.672;2023-03-24T10:22:24;99727.03;;;16.31;100.00
61908;BME280;47864;52.526;19.672;2023-03-24T10:24:37;99725.44;;;16.11;100.00
61908;BME280;47864;52.526;19.672;2023-03-24T10:31:14;99724.81;;;16.22;100.00
61908;BME280;47864;52.526;19.672;2023-03-24T10:33:17;99729.72;;;16.25;100.00
61908;BME280;47864;52.526;19.672;2023-03-24T10:35:27;99718.31;;;16.56;100.00
61908;BME280;47864;52.526;19.672;2023-03-24T10:37:29;99721.59;;;16.64;100.00
61908;BME280;47864;52.526;19.672;2023-03-24T10:39:31;99691.63;;;16.36;100.00
61908;BME280;47864;52.526;19.672;2023-03-24T10:41:45;99706.38;;;16.58;100.00
61908;BME280;47864;52.526;19.672;2023-03-24T10:43:49;99710.63;;;16.86;100.00
61908;BME280;47864;52.526;19.672;2023-03-24T10:45:53;99709.97;;;16.90;100.00
61908;BME280;47864;52.526;19.672;2023-03-24T10:47:56;99711.66;;;16.85;100.00
61908;BME280;47864;52.526;19.672;2023-03-24T10:50:00;99703.75;;;17.03;100.00
61908;BME280;47864;52.526;19.672;2023-03-24T10:52:15;99712.34;;;17.05;100.00
61908;BME280;47864;52.526;19.672;2023-03-24T10:54:25;99700.47;;;16.94;99.23
61908;BME280;47864;52.526;19.672;2023-03-24T10:56:41;99696.28;;;17.11;99.06
61908;BME280;47864;52.526;19.672;2023-03-24T10:58:44;99699.41;;;17.33;97.44
61908;BME280;47864;52.526;19.672;2023-03-24T11:00:46;99692.41;;;17.01;97.49
61908;BME280;47864;52.526;19.672;2023-03-24T11:03:21;99701.69;;;17.36;97.27
61908;BME280;47864;52.526;19.672;2023-03-24T11:05:28;99699.50;;;17.20;98.69
61908;BME280;47864;52.526;19.672;2023-03-24T11:07:38;99705.19;;;17.68;93.03
61908;BME280;47864;52.526;19.672;2023-03-24T11:09:42;99698.91;;;17.99;91.58
61908;BME280;47864;52.526;19.672;2023-03-24T11:11:45;99689.00;;;18.00;90.41
61908;BME280;47864;52.526;19.672;2023-03-24T11:13:54;99679.03;;;18.07;91.55
61908;BME280;47864;52.526;19.672;2023-03-24T11:16:13;99671.75;;;18.32;90.62
61908;BME280;47864;52.526;19.672;2023-03-24T11:18:15;99676.88;;;18.70;86.36
61908;BME280;47864;52.526;19.672;2023-03-24T11:20:26;99665.31;;;18.51;85.02
61908;BME280;47864;52.526;19.672;2023-03-24T11:22:29;99651.75;;;18.10;87.91
61908;BME280;47864;52.526;19.672;2023-03-24T11:24:37;99649.97;;;18.58;85.77
61908;BME280;47864;52.526;19.672;2023-03-24T11:26:39;99660.03;;;19.23;83.19
61908;BME280;47864;52.526;19.672;2023-03-24T11:28:53;99634.16;;;18.32;84.93
61908;BME280;47864;52.526;19.672;2023-03-24T11:30:56;99633.78;;;18.65;83.86
61908;BME280;47864;52.526;19.672;2023-03-24T11:32:58;99646.41;;;18.28;86.00
61908;BME280;47864;52.526;19.672;2023-03-24T11:35:15;99644.38;;;18.42;84.62
61908;BME280;47864;52.526;19.672;2023-03-24T11:37:20;99640.25;;;18.39;83.70
61908;BME280;47864;52.526;19.672;2023-03-24T11:39:25;99626.22;;;18.74;81.68
61908;BME280;47864;52.526;19.672;2023-03-24T11:41:26;99641.91;;;18.58;81.25
61908;BME280;47864;52.526;19.672;2023-03-24T11:43:28;99638.06;;;18.84;79.78
61908;BME280;47864;52.526;19.672;2023-03-24T11:45:36;99632.75;;;19.08;79.19
61908;BME280;47864;52.526;19.672;2023-03-24T11:47:39;99644.28;;;19.26;78.21